createdAt,value
2023-03-03T00:00:32.106Z,8.40
2023-03-03T00:02:35.997Z,7.60
2023-03-03T00:04:37.928Z,6.25
2023-03-03T00:06:39.844Z,8.88
2023-03-03T00:08:42.591Z,8.43
2023-03-03T00:10:45.413Z,7.03
2023-03-03T00:12:49.525Z,5.72
2023-03-03T00:14:51.902Z,6.47
2023-03-03T00:16:55.726Z,6.45
2023-03-03T00:18:58.036Z,6.72
2023-03-03T00:21:01.606Z,7.47
2023-03-03T00:23:09.881Z,5.05
2023-03-03T00:25:18.086Z,5.15
2023-03-03T00:27:24.527Z,7.45
2023-03-03T00:29:31.057Z,5.32
2023-03-03T00:31:35.022Z,8.98
2023-03-03T00:33:46.143Z,7.15
2023-03-03T00:35:48.124Z,5.30
2023-03-03T00:37:55.057Z,9.02
2023-03-03T00:40:03.814Z,7.35
2023-03-03T00:42:12.013Z,8.18
2023-03-03T00:44:26.736Z,5.75
2023-03-03T00:46:37.143Z,6.43
2023-03-03T00:48:42.064Z,6.20
2023-03-03T00:50:44.614Z,8.25
2023-03-03T00:52:55.146Z,4.95
2023-03-03T00:54:58.468Z,4.93
2023-03-03T00:57:00.428Z,7.05
2023-03-03T00:59:02.339Z,7.35
2023-03-03T01:01:04.816Z,4.43
2023-03-03T01:03:17.260Z,3.85
2023-03-03T01:05:19.904Z,7.22
2023-03-03T01:07:22.143Z,4.88
2023-03-03T01:09:24.353Z,5.35
2023-03-03T01:11:28.706Z,5.18
2023-03-03T01:13:37.920Z,6.65
2023-03-03T01:15:41.170Z,5.78
2023-03-03T01:17:43.412Z,6.07
2023-03-03T01:19:45.222Z,3.80
2023-03-03T01:21:47.178Z,6.07
2023-03-03T01:23:49.022Z,5.80
2023-03-03T01:25:53.225Z,6.65
2023-03-03T01:27:55.140Z,5.45
2023-03-03T01:29:57.673Z,7.47
2023-03-03T01:31:59.584Z,5.45
2023-03-03T01:34:01.502Z,7.03
2023-03-03T01:36:04.238Z,7.22
2023-03-03T01:38:08.513Z,4.40
2023-03-03T01:40:16.849Z,5.03
2023-03-03T01:42:19.680Z,7.35
2023-03-03T01:44:21.538Z,4.07
2023-03-03T01:46:25.168Z,6.30
2023-03-03T01:48:33.172Z,5.57
2023-03-03T01:50:41.190Z,8.75
2023-03-03T01:52:46.790Z,6.43
2023-03-03T01:54:55.616Z,6.35
2023-03-03T01:57:01.408Z,7.95
2023-03-03T01:59:09.763Z,5.82
2023-03-03T02:01:15.964Z,6.05
2023-03-03T02:03:22.586Z,8.73
2023-03-03T02:05:25.297Z,6.93
2023-03-03T02:07:29.126Z,5.70
2023-03-03T02:09:39.940Z,7.32
2023-03-03T02:13:46.340Z,4.00
2023-03-03T02:15:48.773Z,6.32
2023-03-03T02:17:54.971Z,5.95
2023-03-03T02:20:06.861Z,5.25
2023-03-03T02:22:08.840Z,5.72
2023-03-03T02:24:15.178Z,7.57
2023-03-03T02:26:22.783Z,6.40
2023-03-03T02:28:28.378Z,4.90
2023-03-03T02:30:37.164Z,8.35
2023-03-03T02:32:38.974Z,5.57
2023-03-03T02:34:46.703Z,6.75
2023-03-03T02:36:48.537Z,6.45
2023-03-03T02:38:53.965Z,7.78
2023-03-03T02:40:59.496Z,8.77
2023-03-03T02:43:04.250Z,6.40
2023-03-03T02:45:10.603Z,6.65
2023-03-03T02:47:12.439Z,6.65
2023-03-03T02:49:19.799Z,5.57
2023-03-03T02:51:23.895Z,5.05
2023-03-03T02:53:25.750Z,7.13
2023-03-03T02:55:29.954Z,6.95
2023-03-03T02:57:31.796Z,6.78
2023-03-03T02:59:33.628Z,5.07
2023-03-03T03:01:37.267Z,6.75
2023-03-03T03:03:39.617Z,5.85
2023-03-03T03:05:41.585Z,5.65
2023-03-03T03:07:43.437Z,5.65
2023-03-03T03:09:45.254Z,6.93
2023-03-03T03:11:47.157Z,5.70
2023-03-03T03:13:49.293Z,6.97
2023-03-03T03:15:51.532Z,7.63
2023-03-03T03:17:53.352Z,9.15
2023-03-03T03:19:55.176Z,5.13
2023-03-03T03:21:57.007Z,8.65
2023-03-03T03:23:59.208Z,5.70
2023-03-03T03:26:01.088Z,5.72
2023-03-03T03:28:03.119Z,7.30
2023-03-03T03:30:05.649Z,6.63
2023-03-03T03:32:07.577Z,8.30
2023-03-03T03:34:09.659Z,9.80
2023-03-03T03:36:11.889Z,7.20
2023-03-03T03:38:14.933Z,7.72
2023-03-03T03:40:16.889Z,6.78
2023-03-03T03:42:18.729Z,8.13
2023-03-03T03:44:20.621Z,8.02
2023-03-03T03:46:22.566Z,6.18
2023-03-03T03:48:24.468Z,5.60
2023-03-03T03:50:26.503Z,8.45
2023-03-03T03:52:28.423Z,6.30
2023-03-03T03:54:30.257Z,6.05
2023-03-03T03:56:32.077Z,6.10
2023-03-03T03:58:36.317Z,5.20
2023-03-03T04:00:41.189Z,7.32
2023-03-03T04:02:43.209Z,6.38
2023-03-03T04:04:45.289Z,5.53
2023-03-03T04:06:47.236Z,4.97
2023-03-03T04:08:49.105Z,5.32
2023-03-03T04:10:53.166Z,5.40
2023-03-03T04:12:55.353Z,6.30
2023-03-03T04:14:58.986Z,5.32
2023-03-03T04:17:00.895Z,4.45
2023-03-03T04:19:03.265Z,8.32
2023-03-03T04:21:06.002Z,5.80
2023-03-03T04:23:07.830Z,7.55
2023-03-03T04:25:15.925Z,5.50
2023-03-03T04:27:17.779Z,5.90
2023-03-03T04:29:19.641Z,6.50
2023-03-03T04:31:21.629Z,8.05
2023-03-03T04:33:23.477Z,5.63
2023-03-03T04:35:25.479Z,3.17
2023-03-03T04:37:27.427Z,4.10
2023-03-03T04:39:29.987Z,4.00
2023-03-03T04:41:31.932Z,6.30
2023-03-03T04:43:33.893Z,5.28
2023-03-03T04:45:35.891Z,7.93
2023-03-03T04:47:40.172Z,4.43
2023-03-03T04:49:42.053Z,6.95
2023-03-03T04:51:44.034Z,6.13
2023-03-03T04:53:45.887Z,4.97
2023-03-03T04:55:50.933Z,5.90
2023-03-03T04:57:52.871Z,7.05
2023-03-03T04:59:54.889Z,6.93
2023-03-03T05:01:56.783Z,6.47
2023-03-03T05:04:18.493Z,6.35
2023-03-03T05:06:20.712Z,5.75
2023-03-03T05:08:23.186Z,7.43
2023-03-03T05:10:25.118Z,5.20
2023-03-03T05:12:27.374Z,4.70
2023-03-03T05:14:29.183Z,9.25
2023-03-03T05:16:31.167Z,5.53
2023-03-03T05:18:33.065Z,4.07
2023-03-03T05:20:34.881Z,3.47
2023-03-03T05:22:36.658Z,3.78
2023-03-03T05:24:39.277Z,4.70
2023-03-03T05:26:43.188Z,2.83
2023-03-03T05:28:45.801Z,6.35
2023-03-03T05:30:50.376Z,8.52
2023-03-03T05:32:52.441Z,6.35
2023-03-03T05:34:54.928Z,5.35
2023-03-03T05:36:57.523Z,7.50
2023-03-03T05:38:59.961Z,4.20
2023-03-03T05:41:05.799Z,4.03
2023-03-03T05:43:08.435Z,3.45
2023-03-03T05:45:12.600Z,4.00
2023-03-03T05:47:16.380Z,3.85
2023-03-03T05:49:18.932Z,4.00
2023-03-03T05:51:20.933Z,5.13
2023-03-03T05:53:25.201Z,5.45
2023-03-03T05:55:27.502Z,7.18
2023-03-03T05:57:29.770Z,5.00
2023-03-03T05:59:31.804Z,5.97
2023-03-03T06:01:34.069Z,8.25
2023-03-03T06:03:36.113Z,5.25
2023-03-03T06:05:38.177Z,6.35
2023-03-03T06:07:40.881Z,3.30
2023-03-03T06:09:42.849Z,5.00
2023-03-03T06:11:45.066Z,4.97
2023-03-03T06:13:47.163Z,3.47
2023-03-03T06:15:49.216Z,3.72
2023-03-03T06:17:51.600Z,3.72
2023-03-03T06:19:53.770Z,4.85
2023-03-03T06:22:00.615Z,5.60
2023-03-03T06:24:03.548Z,6.43
2023-03-03T06:26:06.213Z,5.15
2023-03-03T06:28:09.375Z,3.45
2023-03-03T06:30:13.515Z,4.07
2023-03-03T06:32:18.141Z,5.65
2023-03-03T06:34:20.409Z,4.57
2023-03-03T06:36:23.825Z,6.85
2023-03-03T06:38:30.254Z,3.30
2023-03-03T06:40:37.024Z,7.20
2023-03-03T06:42:40.737Z,5.05
2023-03-03T06:44:42.459Z,3.75
2023-03-03T06:46:47.226Z,4.45
2023-03-03T06:48:53.117Z,2.78
2023-03-03T06:51:00.893Z,3.30
2023-03-03T06:53:15.484Z,6.65
2023-03-03T06:55:29.932Z,4.55
2023-03-03T06:57:35.622Z,4.93
2023-03-03T06:59:40.636Z,3.60
2023-03-03T07:01:44.705Z,4.93
2023-03-03T07:03:54.821Z,4.30
2023-03-03T07:06:01.067Z,8.88
2023-03-03T07:08:13.963Z,4.72
2023-03-03T07:10:25.242Z,3.47
2023-03-03T07:12:32.265Z,2.75
2023-03-03T07:15:03.522Z,2.25
2023-03-03T07:17:17.436Z,3.33
2023-03-03T07:19:33.576Z,2.42
2023-03-03T07:21:38.102Z,3.47
2023-03-03T07:23:42.900Z,7.40
2023-03-03T07:25:48.939Z,5.32
2023-03-03T07:27:52.019Z,3.45
2023-03-03T07:30:02.591Z,7.75
2023-03-03T07:32:35.380Z,5.68
2023-03-03T07:34:46.402Z,4.05
2023-03-03T07:37:01.174Z,3.70
2023-03-03T07:39:16.874Z,3.72
2023-03-03T07:41:34.111Z,5.75
2023-03-03T07:43:51.287Z,5.82
2023-03-03T07:46:14.493Z,3.22
2023-03-03T07:48:24.232Z,8.25
2023-03-03T07:50:27.950Z,4.85
2023-03-03T07:52:52.161Z,3.45
2023-03-03T07:55:31.152Z,3.55
2023-03-03T07:57:28.172Z,5.88
2023-03-03T07:59:30.792Z,7.75
2023-03-03T08:01:40.021Z,3.92
2023-03-03T08:03:46.945Z,7.20
2023-03-03T08:05:50.512Z,5.28
2023-03-03T08:07:52.915Z,6.35
2023-03-03T08:09:59.876Z,4.05
2023-03-03T08:12:08.133Z,6.07
2023-03-03T08:14:13.630Z,7.05
2023-03-03T08:16:16.740Z,6.15
2023-03-03T08:18:25.283Z,6.28
2023-03-03T08:20:39.415Z,5.70
2023-03-03T08:22:42.998Z,7.50
2023-03-03T08:24:45.441Z,6.97
2023-03-03T08:26:47.586Z,5.70
2023-03-03T08:28:50.613Z,7.03
2023-03-03T08:31:05.502Z,3.72
2023-03-03T08:33:08.693Z,3.70
2023-03-03T08:35:14.315Z,4.97
2023-03-03T08:37:16.421Z,8.00
2023-03-03T08:39:18.562Z,11.45
2023-03-03T08:41:20.883Z,5.03
2023-03-03T08:43:23.280Z,7.07
2023-03-03T08:45:33.585Z,5.80
2023-03-03T08:47:35.750Z,6.53
2023-03-03T08:49:37.960Z,6.30
2023-03-03T08:51:40.633Z,5.47
2023-03-03T08:53:42.955Z,6.57
2023-03-03T08:55:45.430Z,5.03
2023-03-03T08:57:47.756Z,6.68
2023-03-03T08:59:50.159Z,5.53
2023-03-03T09:01:52.610Z,3.47
2023-03-03T09:03:55.469Z,3.00
2023-03-03T09:05:57.860Z,5.78
2023-03-03T09:08:00.994Z,3.67
2023-03-03T09:10:04.573Z,4.93
2023-03-03T09:12:15.694Z,4.95
2023-03-03T09:14:20.835Z,4.28
2023-03-03T09:16:23.170Z,4.97
2023-03-03T09:18:32.567Z,4.30
2023-03-03T09:20:38.242Z,3.88
2023-03-03T09:22:40.447Z,7.72
2023-03-03T09:24:43.200Z,8.07
2023-03-03T09:26:47.531Z,4.15
2023-03-03T09:28:50.075Z,5.50
2023-03-03T09:30:53.756Z,4.50
2023-03-03T09:32:57.682Z,4.32
2023-03-03T09:35:09.021Z,4.63
2023-03-03T09:37:20.380Z,4.53
2023-03-03T09:39:25.607Z,5.15
2023-03-03T09:41:31.342Z,3.90
2023-03-03T09:43:42.218Z,6.50
2023-03-03T09:47:56.281Z,5.43
2023-03-03T09:50:10.724Z,4.65
2023-03-03T09:52:19.111Z,8.07
2023-03-03T09:54:24.892Z,6.95
2023-03-03T09:56:34.153Z,4.95
2023-03-03T09:58:45.895Z,7.78
2023-03-03T10:00:51.578Z,5.45
2023-03-03T10:02:57.980Z,7.93
2023-03-03T10:05:14.624Z,4.03
2023-03-03T10:07:20.323Z,7.10
2023-03-03T10:09:28.538Z,4.28
2023-03-03T10:11:40.204Z,2.97
2023-03-03T10:13:51.777Z,3.33
2023-03-03T10:15:58.448Z,3.38
2023-03-03T10:18:06.891Z,5.15
2023-03-03T10:20:10.736Z,4.18
2023-03-03T10:22:13.661Z,5.68
2023-03-03T10:24:22.097Z,4.10
2023-03-03T10:26:43.925Z,4.78
2023-03-03T10:28:58.880Z,4.95
2023-03-03T10:31:14.251Z,4.22
2023-03-03T10:33:24.453Z,5.47
2023-03-03T10:35:40.008Z,4.15
2023-03-03T10:37:46.660Z,3.92
2023-03-03T10:39:59.566Z,4.93
2023-03-03T10:42:04.514Z,2.25
2023-03-03T10:44:11.295Z,3.72
2023-03-03T10:46:26.387Z,7.57
2023-03-03T10:48:32.676Z,3.97
2023-03-03T10:50:46.069Z,3.78
2023-03-03T10:52:53.683Z,2.65
2023-03-03T10:55:00.263Z,7.82
2023-03-03T10:57:08.528Z,3.13
2023-03-03T10:59:14.135Z,4.18
2023-03-03T11:01:24.572Z,4.93
2023-03-03T11:03:33.326Z,5.72
2023-03-03T11:05:40.354Z,4.53
2023-03-03T11:07:47.338Z,2.70
2023-03-03T11:10:01.256Z,3.53
2023-03-03T11:12:12.954Z,3.42
2023-03-03T11:14:19.322Z,5.68
2023-03-03T11:16:33.480Z,5.28
2023-03-03T11:18:48.434Z,4.63
2023-03-03T11:20:55.769Z,3.28
2023-03-03T11:23:01.596Z,3.72
2023-03-03T11:25:13.572Z,4.95
2023-03-03T11:27:23.529Z,5.40
2023-03-03T11:29:34.282Z,3.33
2023-03-03T11:31:42.579Z,0.93
2023-03-03T11:33:51.570Z,2.42
2023-03-03T11:36:00.006Z,1.30
2023-03-03T11:38:08.304Z,1.77
2023-03-03T11:40:16.922Z,2.60
2023-03-03T11:42:25.305Z,2.42
2023-03-03T11:44:34.822Z,4.38
2023-03-03T11:46:45.235Z,1.02
2023-03-03T11:48:57.692Z,3.17
2023-03-03T11:51:06.434Z,4.35
2023-03-03T11:53:11.977Z,6.07
2023-03-03T11:55:34.922Z,2.83
2023-03-03T11:57:42.333Z,3.08
2023-03-03T11:59:54.065Z,6.43
2023-03-03T12:02:00.735Z,3.75
2023-03-03T12:04:04.814Z,1.98
2023-03-03T12:06:10.330Z,3.15
2023-03-03T12:08:24.053Z,4.53
2023-03-03T12:10:32.773Z,1.30
2023-03-03T12:12:43.272Z,0.90
2023-03-03T12:14:55.025Z,1.25
2023-03-03T12:17:01.661Z,1.38
2023-03-03T12:19:10.073Z,1.95
2023-03-03T12:21:15.632Z,4.43
2023-03-03T12:23:30.234Z,2.78
2023-03-03T12:25:44.695Z,3.20
2023-03-03T12:27:51.580Z,5.10
2023-03-03T12:30:05.184Z,3.30
2023-03-03T12:32:14.021Z,1.90
2023-03-03T12:34:23.504Z,5.07
2023-03-03T12:36:34.893Z,2.53
2023-03-03T12:38:49.450Z,2.55
2023-03-03T12:41:04.098Z,4.53
2023-03-03T12:43:12.560Z,1.75
2023-03-03T12:47:43.082Z,2.08
2023-03-03T12:50:06.534Z,1.17
2023-03-03T12:52:13.124Z,1.70
2023-03-03T12:54:23.237Z,2.15
2023-03-03T12:56:28.975Z,3.03
2023-03-03T12:58:40.065Z,4.15
2023-03-03T13:00:48.491Z,3.97
2023-03-03T13:03:01.359Z,1.13
2023-03-03T13:05:22.782Z,2.35
2023-03-03T13:07:35.968Z,1.38
2023-03-03T13:09:49.701Z,4.75
2023-03-03T13:12:02.108Z,1.98
2023-03-03T13:14:15.680Z,3.85
2023-03-03T13:16:41.156Z,5.18
2023-03-03T13:18:46.008Z,3.58
2023-03-03T13:20:55.900Z,3.15
2023-03-03T13:23:01.684Z,2.10
2023-03-03T13:25:24.866Z,3.42
2023-03-03T13:27:38.005Z,5.22
2023-03-03T13:29:43.748Z,4.30
2023-03-03T13:31:50.867Z,4.18
2023-03-03T13:33:56.835Z,3.53
2023-03-03T13:36:04.060Z,3.80
2023-03-03T13:38:10.336Z,3.78
2023-03-03T13:40:17.420Z,10.05
2023-03-03T13:42:24.626Z,4.63
2023-03-03T13:44:35.986Z,4.68
2023-03-03T13:46:46.213Z,4.40
2023-03-03T13:48:57.119Z,5.90
2023-03-03T13:51:05.632Z,1.30
2023-03-03T13:53:12.174Z,5.07
2023-03-03T13:55:31.608Z,1.88
2023-03-03T13:57:40.132Z,3.55
2023-03-03T13:59:45.853Z,2.22
2023-03-03T14:01:51.894Z,5.47
2023-03-03T14:04:00.123Z,1.92
2023-03-03T14:06:09.200Z,6.18
2023-03-03T14:08:14.332Z,2.45
2023-03-03T14:10:22.597Z,1.85
2023-03-03T14:12:35.039Z,2.55
2023-03-03T14:14:41.720Z,4.93
2023-03-03T14:16:47.503Z,2.80
2023-03-03T14:18:55.608Z,5.90
2023-03-03T14:21:08.236Z,5.00
2023-03-03T14:23:19.517Z,2.22
2023-03-03T14:25:22.061Z,2.42
2023-03-03T14:27:27.190Z,1.83
2023-03-03T14:29:31.294Z,1.83
2023-03-03T14:31:39.755Z,1.90
2023-03-03T14:33:47.880Z,2.00
2023-03-03T14:35:56.431Z,2.97
2023-03-03T14:38:02.660Z,1.25
2023-03-03T14:40:10.913Z,1.88
2023-03-03T14:42:15.977Z,2.75
2023-03-03T14:44:24.523Z,1.63
2023-03-03T14:46:29.633Z,4.32
2023-03-03T14:48:32.812Z,4.95
2023-03-03T14:50:39.938Z,2.90
2023-03-03T14:52:42.871Z,2.40
2023-03-03T14:54:51.132Z,3.25
2023-03-03T14:57:00.568Z,1.50
2023-03-03T14:59:08.919Z,1.38
2023-03-03T15:01:17.503Z,2.50
2023-03-03T15:03:23.538Z,3.20
2023-03-03T15:07:52.485Z,5.03
2023-03-03T15:09:55.122Z,3.35
2023-03-03T15:11:59.474Z,1.25
2023-03-03T15:14:12.692Z,2.30
2023-03-03T15:16:20.493Z,1.40
2023-03-03T15:18:22.915Z,2.20
2023-03-03T15:20:33.784Z,3.45
2023-03-03T15:24:57.052Z,1.02
2023-03-03T15:27:05.760Z,1.50
2023-03-03T15:29:18.014Z,3.65
2023-03-03T15:31:24.730Z,2.70
2023-03-03T15:33:31.220Z,1.67
2023-03-03T15:35:58.043Z,2.33
2023-03-03T15:38:04.436Z,3.75
2023-03-03T15:40:10.320Z,1.25
2023-03-03T15:42:19.046Z,4.68
2023-03-03T15:44:32.260Z,1.80
2023-03-03T15:46:46.305Z,1.23
2023-03-03T15:48:54.479Z,2.25
2023-03-03T15:51:03.052Z,1.17
2023-03-03T15:53:08.635Z,1.45
2023-03-03T15:55:18.481Z,2.88
2023-03-03T15:57:26.816Z,3.10
2023-03-03T15:59:42.521Z,1.48
2023-03-03T16:01:56.277Z,1.30
2023-03-03T16:04:04.057Z,1.00
2023-03-03T16:06:10.551Z,2.28
2023-03-03T16:08:19.793Z,2.67
2023-03-03T16:10:28.947Z,1.33
2023-03-03T16:12:36.346Z,1.50
2023-03-03T16:14:43.847Z,9.68
2023-03-03T16:16:54.816Z,2.60
2023-03-03T16:19:05.234Z,4.43
2023-03-03T16:21:18.531Z,7.75
2023-03-03T16:23:25.364Z,4.70
2023-03-03T16:25:43.688Z,3.88
2023-03-03T16:27:47.540Z,2.80
2023-03-03T16:30:04.513Z,1.88
2023-03-03T16:32:12.268Z,2.08
2023-03-03T16:34:26.041Z,1.45
2023-03-03T16:36:29.194Z,4.32
2023-03-03T16:38:37.847Z,2.58
2023-03-03T16:40:44.565Z,0.93
2023-03-03T16:42:50.258Z,1.58
2023-03-03T16:44:57.501Z,1.38
2023-03-03T16:47:18.197Z,1.95
2023-03-03T16:49:23.966Z,3.05
2023-03-03T16:51:32.365Z,3.47
2023-03-03T16:53:39.341Z,2.17
2023-03-03T16:55:47.813Z,2.50
2023-03-03T16:57:53.479Z,4.45
2023-03-03T17:00:06.699Z,1.67
2023-03-03T17:02:19.285Z,3.60
2023-03-03T17:04:32.522Z,2.00
2023-03-03T17:06:38.273Z,1.77
2023-03-03T17:08:52.520Z,2.60
2023-03-03T17:11:00.875Z,4.72
2023-03-03T17:13:07.434Z,3.33
2023-03-03T17:15:20.541Z,1.83
2023-03-03T17:17:26.097Z,2.95
2023-03-03T17:19:40.508Z,6.32
2023-03-03T17:21:49.126Z,1.00
2023-03-03T17:24:04.727Z,1.77
2023-03-03T17:26:13.693Z,2.50
2023-03-03T17:28:19.547Z,3.60
2023-03-03T17:30:28.857Z,2.80
2023-03-03T17:32:37.209Z,3.03
2023-03-03T17:34:42.238Z,2.55
2023-03-03T17:36:48.990Z,2.97
2023-03-03T17:38:55.677Z,2.17
2023-03-03T17:41:03.915Z,2.58
2023-03-03T17:43:09.473Z,3.97
2023-03-03T17:45:29.413Z,4.97
2023-03-03T17:47:36.119Z,3.20
2023-03-03T17:49:41.920Z,5.38
2023-03-03T17:51:58.671Z,2.28
2023-03-03T17:54:11.031Z,2.97
2023-03-03T17:56:19.577Z,2.50
2023-03-03T17:58:34.252Z,4.55
2023-03-03T18:00:42.850Z,4.15
2023-03-03T18:02:51.533Z,2.42
2023-03-03T18:05:16.616Z,3.80
2023-03-03T18:07:31.098Z,5.38
2023-03-03T18:09:44.694Z,2.83
2023-03-03T18:11:51.468Z,3.25
2023-03-03T18:13:58.095Z,3.33
2023-03-03T18:16:12.141Z,3.35
2023-03-03T18:18:20.780Z,3.17
2023-03-03T18:20:26.717Z,6.10
2023-03-03T18:22:32.738Z,4.50
2023-03-03T18:24:38.726Z,2.95
2023-03-03T18:26:42.287Z,4.28
2023-03-03T18:28:49.788Z,2.78
2023-03-03T18:30:57.663Z,4.68
2023-03-03T18:33:06.516Z,5.32
2023-03-03T18:35:25.447Z,5.32
2023-03-03T18:37:31.720Z,3.85
2023-03-03T18:39:41.234Z,3.72
2023-03-03T18:41:49.478Z,5.00
2023-03-03T18:43:57.899Z,4.43
2023-03-03T18:46:00.309Z,3.67
2023-03-03T18:48:08.641Z,3.63
2023-03-03T18:50:16.763Z,7.22
2023-03-03T18:52:23.382Z,4.35
2023-03-03T18:54:31.439Z,5.28
2023-03-03T18:56:43.483Z,5.45
2023-03-03T18:58:45.666Z,3.45
2023-03-03T19:00:52.847Z,4.63
2023-03-03T19:02:57.748Z,4.80
2023-03-03T19:05:26.431Z,5.40
2023-03-03T19:07:44.051Z,3.50
2023-03-03T19:09:52.753Z,3.85
2023-03-03T19:11:56.929Z,5.53
2023-03-03T19:14:05.158Z,4.00
2023-03-03T19:16:11.551Z,9.40
2023-03-03T19:18:20.240Z,8.82
2023-03-03T19:20:24.378Z,5.53
2023-03-03T19:22:30.142Z,7.97
2023-03-03T19:24:34.882Z,7.57
2023-03-03T19:26:47.234Z,10.32
2023-03-03T19:28:58.917Z,5.10
2023-03-03T19:31:05.106Z,6.82
2023-03-03T19:33:13.128Z,5.40
2023-03-03T19:35:21.694Z,6.18
2023-03-03T19:39:50.358Z,10.65
2023-03-03T19:41:55.912Z,6.18
2023-03-03T19:44:06.583Z,8.02
2023-03-03T19:46:12.336Z,16.60
2023-03-03T19:48:19.759Z,8.93
2023-03-03T19:50:26.512Z,4.88
2023-03-03T19:52:38.410Z,9.35
2023-03-03T19:54:44.476Z,7.38
2023-03-03T19:56:48.754Z,8.60
2023-03-03T19:59:02.242Z,12.63
2023-03-03T20:01:08.988Z,8.77
2023-03-03T20:03:37.075Z,7.63
2023-03-03T20:05:47.194Z,11.20
2023-03-03T20:07:58.926Z,8.00
2023-03-03T20:10:11.637Z,9.80
2023-03-03T20:12:17.285Z,9.48
2023-03-03T20:14:21.157Z,12.02
2023-03-03T20:16:40.936Z,9.30
2023-03-03T20:18:58.950Z,3.17
2023-03-03T20:21:02.878Z,11.93
2023-03-03T20:23:06.051Z,8.75
2023-03-03T20:25:14.861Z,6.80
2023-03-03T20:27:23.601Z,4.32
2023-03-03T20:29:34.618Z,9.70
2023-03-03T20:31:41.288Z,7.18
2023-03-03T20:33:48.352Z,5.95
2023-03-03T20:35:58.974Z,11.50
2023-03-03T20:38:08.572Z,11.65
2023-03-03T20:40:20.509Z,9.90
2023-03-03T20:42:25.448Z,6.68
2023-03-03T20:44:34.021Z,6.60
2023-03-03T20:46:39.773Z,8.43
2023-03-03T20:48:44.846Z,9.13
2023-03-03T20:50:59.753Z,6.75
2023-03-03T20:53:08.375Z,5.82
2023-03-03T20:55:19.709Z,7.32
2023-03-03T20:57:34.112Z,7.75
2023-03-03T20:59:44.498Z,10.00
2023-03-03T21:01:58.367Z,9.20
2023-03-03T21:04:06.924Z,6.63
2023-03-03T21:06:15.399Z,7.07
2023-03-03T21:08:17.753Z,10.07
2023-03-03T21:10:26.754Z,6.40
2023-03-03T21:12:32.409Z,10.70
2023-03-03T21:14:36.855Z,11.95
2023-03-03T21:16:42.466Z,12.65
2023-03-03T21:19:00.300Z,12.65
2023-03-03T21:21:04.694Z,12.30
2023-03-03T21:23:12.747Z,9.48
2023-03-03T21:25:22.634Z,13.88
2023-03-03T21:29:34.661Z,11.68
2023-03-03T21:31:44.711Z,9.75
2023-03-03T21:33:53.863Z,7.30
2023-03-03T21:35:59.424Z,13.23
2023-03-03T21:38:01.928Z,16.88
2023-03-03T21:40:10.073Z,17.15
2023-03-03T21:42:14.661Z,12.98
2023-03-03T21:44:23.096Z,14.18
2023-03-03T21:46:25.690Z,19.92
2023-03-03T21:48:27.762Z,9.85
2023-03-03T21:50:32.807Z,6.68
2023-03-03T21:52:35.026Z,12.00
2023-03-03T21:54:37.065Z,10.60
2023-03-03T21:56:41.908Z,16.45
2023-03-03T21:58:44.274Z,11.30
2023-03-03T22:00:46.309Z,9.00
2023-03-03T22:02:48.463Z,9.13
2023-03-03T22:04:50.635Z,16.95
2023-03-03T22:06:52.982Z,16.70
2023-03-03T22:08:55.073Z,14.48
2023-03-03T22:10:57.119Z,7.50
2023-03-03T22:12:59.231Z,9.77
2023-03-03T22:15:04.235Z,10.27
2023-03-03T22:17:06.290Z,8.93
2023-03-03T22:19:10.184Z,10.82
2023-03-03T22:21:12.178Z,10.32
2023-03-03T22:23:15.846Z,7.47
2023-03-03T22:25:18.032Z,15.63
2023-03-03T22:27:20.293Z,11.85
2023-03-03T22:29:23.216Z,9.75
2023-03-03T22:31:25.435Z,12.65
2023-03-03T22:33:27.599Z,19.90
2023-03-03T22:35:29.737Z,12.80
2023-03-03T22:37:31.959Z,8.95
2023-03-03T22:39:34.602Z,12.27
2023-03-03T22:41:36.784Z,11.80
2023-03-03T22:43:39.001Z,9.55
2023-03-03T22:45:41.167Z,9.98
2023-03-03T22:47:43.253Z,9.68
2023-03-03T22:49:45.452Z,9.70
2023-03-03T22:51:47.488Z,17.27
2023-03-03T22:53:49.587Z,9.73
2023-03-03T22:55:52.084Z,8.00
2023-03-03T22:57:54.165Z,11.10
2023-03-03T22:59:56.297Z,10.32
2023-03-03T23:01:58.522Z,8.25
2023-03-03T23:04:00.503Z,7.70
2023-03-03T23:06:02.485Z,11.95
2023-03-03T23:08:07.089Z,9.23
2023-03-03T23:10:11.203Z,9.95
2023-03-03T23:12:13.292Z,8.30
2023-03-03T23:14:15.477Z,7.75
2023-03-03T23:16:19.563Z,10.75
2023-03-03T23:18:21.562Z,7.97
2023-03-03T23:20:28.743Z,8.43
2023-03-03T23:22:31.692Z,7.90
2023-03-03T23:24:35.985Z,11.80
2023-03-03T23:26:39.721Z,10.52
2023-03-03T23:28:41.711Z,6.55
2023-03-03T23:30:44.167Z,12.10
2023-03-03T23:32:48.410Z,14.00
2023-03-03T23:35:04.530Z,6.57
2023-03-03T23:37:06.946Z,5.65
2023-03-03T23:39:09.823Z,14.30
2023-03-03T23:41:11.964Z,8.38
2023-03-03T23:43:15.257Z,6.93
2023-03-03T23:45:18.113Z,13.00
2023-03-03T23:47:20.339Z,12.57
2023-03-03T23:49:27.358Z,12.55
2023-03-03T23:51:29.474Z,10.82
2023-03-03T23:53:31.725Z,5.40
2023-03-03T23:55:34.153Z,9.48
2023-03-03T23:57:36.206Z,13.10
2023-03-03T23:59:38.285Z,7.88
